createdAt,value
2022-11-27T05:00:42.876Z,14.18
2022-11-27T05:04:45.498Z,14.50
2022-11-27T05:08:48.123Z,14.77
2022-11-27T05:12:50.925Z,15.20
2022-11-27T05:16:57.403Z,12.68
2022-11-27T05:21:01.496Z,12.55
2022-11-27T05:25:04.320Z,14.23
2022-11-27T05:29:07.434Z,15.00
2022-11-27T05:33:11.539Z,13.88
2022-11-27T05:37:19.216Z,13.98
2022-11-27T05:41:22.388Z,14.45
2022-11-27T05:45:25.006Z,14.18
2022-11-27T05:49:29.007Z,15.50
2022-11-27T05:53:31.879Z,15.35
2022-11-27T05:57:34.495Z,12.85
2022-11-27T06:01:37.144Z,12.13
2022-11-27T06:05:41.208Z,10.30
2022-11-27T06:09:43.912Z,12.90
2022-11-27T06:13:47.609Z,13.53
2022-11-27T06:17:50.253Z,13.23
2022-11-27T06:21:54.363Z,13.53
2022-11-27T06:25:56.952Z,11.95
2022-11-27T06:29:59.570Z,13.33
2022-11-27T06:34:03.081Z,11.07
2022-11-27T06:42:09.518Z,12.95
2022-11-27T06:46:13.968Z,10.87
2022-11-27T06:50:16.713Z,12.63
2022-11-27T06:54:20.675Z,10.43
2022-11-27T06:58:27.897Z,13.63
2022-11-27T07:02:33.650Z,15.82
2022-11-27T07:06:36.293Z,12.07
2022-11-27T07:10:40.434Z,10.53
2022-11-27T07:14:43.130Z,13.13
2022-11-27T07:18:47.650Z,12.03
2022-11-27T07:22:50.318Z,9.48
2022-11-27T07:26:54.246Z,15.27
2022-11-27T07:30:58.631Z,11.15
2022-11-27T07:35:01.277Z,10.32
2022-11-27T07:39:03.977Z,10.30
2022-11-27T07:43:08.150Z,11.50
2022-11-27T07:47:10.739Z,13.38
2022-11-27T07:51:16.240Z,11.83
2022-11-27T07:55:18.983Z,12.75
2022-11-27T07:59:23.203Z,13.87
2022-11-27T08:03:26.037Z,10.20
2022-11-27T08:07:29.502Z,10.43
2022-11-27T08:15:39.104Z,12.60
2022-11-27T08:19:41.751Z,15.57
2022-11-27T08:23:44.377Z,11.67
2022-11-27T08:27:48.245Z,10.13
2022-11-27T08:31:52.401Z,11.45
2022-11-27T08:35:55.339Z,10.90
2022-11-27T08:39:58.160Z,9.00
2022-11-27T08:44:02.030Z,11.67
2022-11-27T08:48:08.038Z,8.50
2022-11-27T08:52:11.052Z,9.38
2022-11-27T08:56:17.597Z,11.38
2022-11-27T09:00:26.404Z,10.27
2022-11-27T09:04:31.934Z,11.52
2022-11-27T09:08:34.681Z,11.20
2022-11-27T09:12:43.101Z,10.50
2022-11-27T09:16:46.146Z,8.77
2022-11-27T09:20:57.739Z,11.40
2022-11-27T09:25:00.355Z,12.10
2022-11-27T09:29:03.960Z,10.60
2022-11-27T09:33:06.528Z,8.60
2022-11-27T09:37:11.077Z,10.63
2022-11-27T09:41:39.418Z,8.15
2022-11-27T09:45:48.246Z,9.55
2022-11-27T09:49:55.731Z,10.88
2022-11-27T09:54:07.460Z,14.13
2022-11-27T09:58:17.073Z,7.95
2022-11-27T10:02:26.127Z,9.52
2022-11-27T10:06:36.336Z,12.15
2022-11-27T10:10:46.678Z,9.52
2022-11-27T10:15:04.032Z,7.90
2022-11-27T10:19:12.395Z,10.27
2022-11-27T10:23:25.443Z,10.38
2022-11-27T10:27:36.582Z,9.50
2022-11-27T10:31:44.437Z,10.32
2022-11-27T10:35:49.441Z,8.40
2022-11-27T10:39:58.670Z,8.35
2022-11-27T10:44:16.631Z,9.00
2022-11-27T10:48:19.779Z,9.15
2022-11-27T10:52:22.396Z,8.85
2022-11-27T10:56:45.622Z,8.23
2022-11-27T11:00:49.701Z,10.38
2022-11-27T11:05:16.163Z,7.18
2022-11-27T11:09:17.815Z,8.15
2022-11-27T11:13:23.045Z,7.03
2022-11-27T11:17:28.646Z,8.43
2022-11-27T11:21:34.373Z,6.50
2022-11-27T11:25:36.991Z,8.35
2022-11-27T11:29:47.032Z,8.60
2022-11-27T11:33:55.357Z,7.78
2022-11-27T11:37:59.141Z,9.23
2022-11-27T11:42:02.100Z,13.93
2022-11-27T11:46:17.292Z,9.25
2022-11-27T11:50:30.958Z,8.95
2022-11-27T11:54:49.791Z,7.30
2022-11-27T11:58:57.810Z,9.75
2022-11-27T12:03:18.015Z,10.10
2022-11-27T12:07:34.837Z,7.53
2022-11-27T12:11:43.117Z,9.65
2022-11-27T12:15:56.043Z,10.45
2022-11-27T12:20:22.488Z,9.87
2022-11-27T12:24:39.908Z,9.63
2022-11-27T12:29:07.897Z,8.90
2022-11-27T12:33:33.084Z,9.73
2022-11-27T12:37:52.617Z,9.60
2022-11-27T12:42:21.582Z,7.05
2022-11-27T12:46:31.103Z,6.75
2022-11-27T12:50:41.126Z,10.63
2022-11-27T12:54:52.455Z,8.80
2022-11-27T12:59:02.116Z,10.05
2022-11-27T13:03:11.399Z,7.57
2022-11-27T13:07:19.067Z,5.40
2022-11-27T13:11:27.213Z,8.32
2022-11-27T13:15:36.725Z,8.45
2022-11-27T13:19:44.995Z,7.57
2022-11-27T13:23:47.622Z,8.38
2022-11-27T13:27:52.753Z,8.20
2022-11-27T13:31:59.969Z,8.13
2022-11-27T13:36:07.007Z,7.10
2022-11-27T13:40:20.195Z,7.78
2022-11-27T13:44:25.645Z,7.80
2022-11-27T13:48:34.066Z,6.55
2022-11-27T13:52:37.687Z,9.38
2022-11-27T13:56:41.191Z,7.15
2022-11-27T14:04:55.826Z,8.10
2022-11-27T14:09:01.721Z,6.72
2022-11-27T14:13:06.938Z,8.20
2022-11-27T14:17:25.350Z,8.00
2022-11-27T14:21:40.726Z,7.50
2022-11-27T14:25:43.338Z,9.32
2022-11-27T14:29:46.195Z,8.63
2022-11-27T14:34:13.649Z,7.10
2022-11-27T14:38:16.494Z,9.70
2022-11-27T14:42:27.962Z,12.23
2022-11-27T14:46:33.797Z,8.73
2022-11-27T14:50:36.460Z,7.00
2022-11-27T14:54:41.756Z,7.23
2022-11-27T14:58:49.886Z,9.95
2022-11-27T15:02:52.899Z,9.95
2022-11-27T15:06:57.398Z,11.27
2022-11-27T15:11:02.527Z,8.20
2022-11-27T15:15:09.345Z,8.80
2022-11-27T15:19:18.885Z,7.63
2022-11-27T15:23:24.337Z,9.82
2022-11-27T15:27:28.970Z,7.57
2022-11-27T15:31:33.704Z,6.82
2022-11-27T15:35:36.862Z,7.57
2022-11-27T15:39:51.544Z,9.65
2022-11-27T15:43:56.627Z,8.88
2022-11-27T15:48:01.223Z,8.63
2022-11-27T15:52:03.897Z,10.50
2022-11-27T15:56:07.122Z,8.73
2022-11-27T16:00:12.879Z,5.32
2022-11-27T16:04:15.484Z,13.82
2022-11-27T16:08:18.225Z,7.30
2022-11-27T16:12:20.787Z,8.47
2022-11-27T16:16:26.541Z,10.57
2022-11-27T16:20:29.248Z,7.30
2022-11-27T16:24:31.857Z,17.57
2022-11-27T16:28:35.381Z,29.13
2022-11-27T16:32:40.334Z,38.70
2022-11-27T16:36:44.450Z,81.15
2022-11-27T16:40:48.291Z,46.70
2022-11-27T16:44:51.222Z,53.42
2022-11-27T16:48:56.050Z,28.20
2022-11-27T16:52:59.094Z,21.33
2022-11-27T16:57:01.895Z,12.63
2022-11-27T17:01:05.997Z,11.13
2022-11-27T17:05:10.120Z,7.60
2022-11-27T17:09:12.916Z,7.60
2022-11-27T17:13:15.495Z,9.27
2022-11-27T17:17:18.149Z,8.13
2022-11-27T17:21:24.885Z,5.13
2022-11-27T17:25:30.802Z,6.07
2022-11-27T17:29:34.074Z,5.95
2022-11-27T17:33:38.583Z,9.60
2022-11-27T17:37:43.564Z,8.17
2022-11-27T17:41:46.342Z,7.32
2022-11-27T17:45:48.937Z,7.83
2022-11-27T17:49:51.684Z,11.30
2022-11-27T17:53:55.832Z,7.87
2022-11-27T17:57:59.140Z,7.53
2022-11-27T18:02:01.841Z,6.60
2022-11-27T18:06:06.826Z,8.85
2022-11-27T18:10:12.267Z,7.85
2022-11-27T18:14:15.521Z,6.50
2022-11-27T18:18:18.120Z,8.83
2022-11-27T18:22:20.768Z,8.60
2022-11-27T18:26:45.600Z,8.75
2022-11-27T18:30:48.020Z,6.75
2022-11-27T18:34:53.105Z,8.83
2022-11-27T18:38:55.724Z,9.32
2022-11-27T18:42:59.700Z,8.17
2022-11-27T18:47:04.288Z,7.22
2022-11-27T18:51:08.723Z,6.38
2022-11-27T18:55:11.327Z,6.68
2022-11-27T18:59:15.936Z,6.47
2022-11-27T19:03:20.331Z,7.43
2022-11-27T19:07:23.016Z,6.93
2022-11-27T19:11:28.463Z,6.73
2022-11-27T19:15:32.445Z,8.32
2022-11-27T19:24:00.994Z,9.02
2022-11-27T19:28:03.749Z,5.18
2022-11-27T19:32:07.930Z,7.47
2022-11-27T19:36:12.997Z,6.18
2022-11-27T19:40:15.779Z,6.72
2022-11-27T19:44:18.614Z,4.93
2022-11-27T19:48:23.537Z,7.73
2022-11-27T19:52:26.703Z,7.63
2022-11-27T19:56:30.390Z,8.87
2022-11-27T20:00:33.241Z,7.53
2022-11-27T20:04:37.188Z,8.03
2022-11-27T20:08:41.042Z,10.80
2022-11-27T20:12:43.835Z,11.13
2022-11-27T20:16:46.524Z,10.23
2022-11-27T20:20:50.659Z,11.13
2022-11-27T20:25:17.945Z,8.95
2022-11-27T20:29:16.076Z,10.07
2022-11-27T20:33:19.652Z,8.68
2022-11-27T20:37:33.893Z,7.90
2022-11-27T20:41:36.526Z,8.38
2022-11-27T20:45:39.889Z,8.27
2022-11-27T20:49:42.829Z,6.53
2022-11-27T20:53:48.436Z,7.07
2022-11-27T20:58:03.846Z,6.75
2022-11-27T21:02:06.495Z,8.48
2022-11-27T21:06:09.414Z,9.23
2022-11-27T21:10:15.797Z,8.52
2022-11-27T21:14:18.890Z,10.55
2022-11-27T21:18:21.522Z,8.73
2022-11-27T21:22:24.526Z,8.70
2022-11-27T21:26:28.741Z,10.55
2022-11-27T21:30:32.513Z,5.57
2022-11-27T21:34:35.138Z,6.40
2022-11-27T21:38:37.942Z,7.83
2022-11-27T21:42:44.677Z,8.97
2022-11-27T21:46:48.968Z,8.38
2022-11-27T21:50:52.711Z,7.90
2022-11-27T21:54:55.344Z,8.40
2022-11-27T21:58:59.254Z,7.10
